createdAt,value
2019-03-21T00:01:30.008Z,18.53
2019-03-21T00:04:03.503Z,18.83
2019-03-21T00:06:33.484Z,23.03
2019-03-21T00:09:05.375Z,22.23
2019-03-21T00:12:08.099Z,18.23
2019-03-21T00:14:50.187Z,18.20
2019-03-21T00:17:26.047Z,22.30
2019-03-21T00:19:55.995Z,18.50
2019-03-21T00:22:25.963Z,15.07
2019-03-21T00:24:55.916Z,17.63
2019-03-21T00:27:25.875Z,13.70
2019-03-21T00:29:55.818Z,17.27
2019-03-21T00:32:25.963Z,20.87
2019-03-21T00:34:55.903Z,19.87
2019-03-21T00:37:25.872Z,15.53
2019-03-21T00:39:55.815Z,20.93
2019-03-21T00:42:25.859Z,22.13
2019-03-21T00:44:55.803Z,17.40
2019-03-21T00:47:25.851Z,15.83
2019-03-21T00:49:55.793Z,19.83
2019-03-21T00:52:25.831Z,16.27
2019-03-21T00:54:56.747Z,19.87
2019-03-21T00:57:26.738Z,17.37
2019-03-21T00:59:56.733Z,14.97
2019-03-21T01:02:26.703Z,16.47
2019-03-21T01:04:56.646Z,18.07
2019-03-21T01:07:26.645Z,14.60
2019-03-21T01:09:56.584Z,15.60
2019-03-21T01:12:26.546Z,21.93
2019-03-21T01:14:56.499Z,16.53
2019-03-21T01:17:26.479Z,16.93
2019-03-21T01:19:56.512Z,18.83
2019-03-21T01:22:26.656Z,22.17
2019-03-21T01:24:56.599Z,16.50
2019-03-21T01:27:26.651Z,21.00
2019-03-21T01:29:57.662Z,17.67
2019-03-21T01:32:27.636Z,16.97
2019-03-21T01:34:57.583Z,20.43
2019-03-21T01:37:27.547Z,18.87
2019-03-21T01:39:58.666Z,19.17
2019-03-21T01:42:28.626Z,18.67
2019-03-21T01:44:58.571Z,21.93
2019-03-21T01:47:28.534Z,20.40
2019-03-21T01:49:58.518Z,16.13
2019-03-21T01:52:28.575Z,18.80
2019-03-21T01:54:58.558Z,18.23
2019-03-21T01:57:28.535Z,14.97
2019-03-21T01:59:58.481Z,17.77
2019-03-21T02:02:29.510Z,18.67
2019-03-21T02:04:59.459Z,25.00
2019-03-21T02:07:29.422Z,13.67
2019-03-21T02:09:59.366Z,19.53
2019-03-21T02:12:29.336Z,16.37
2019-03-21T02:14:59.278Z,17.43
2019-03-21T02:17:30.214Z,17.23
2019-03-21T02:20:00.326Z,21.93
2019-03-21T02:22:30.323Z,19.67
2019-03-21T02:25:00.346Z,23.63
2019-03-21T02:27:30.298Z,18.30
2019-03-21T02:30:00.429Z,14.07
2019-03-21T02:32:30.874Z,16.63
2019-03-21T02:35:00.829Z,14.93
2019-03-21T02:37:30.832Z,16.27
2019-03-21T02:40:00.958Z,18.10
2019-03-21T02:42:32.083Z,20.50
2019-03-21T02:45:08.474Z,15.87
2019-03-21T02:47:33.703Z,17.20
2019-03-21T02:50:05.093Z,15.67
2019-03-21T02:52:35.056Z,15.27
2019-03-21T02:55:07.748Z,18.07
2019-03-21T02:57:37.753Z,18.00
2019-03-21T03:00:19.936Z,20.03
2019-03-21T03:02:50.918Z,18.90
2019-03-21T03:05:23.573Z,14.83
2019-03-21T03:07:53.713Z,23.10
2019-03-21T03:10:32.648Z,19.33
2019-03-21T03:13:02.776Z,15.77
2019-03-21T03:15:34.465Z,20.47
2019-03-21T03:18:07.239Z,15.00
2019-03-21T03:20:37.186Z,17.53
2019-03-21T03:23:07.219Z,20.20
2019-03-21T03:25:38.241Z,18.83
2019-03-21T03:28:11.520Z,22.43
2019-03-21T03:30:42.877Z,20.73
2019-03-21T03:33:13.212Z,21.13
2019-03-21T03:35:43.160Z,15.50
2019-03-21T03:38:13.127Z,18.33
2019-03-21T03:40:45.999Z,20.70
2019-03-21T03:43:15.947Z,18.60
2019-03-21T03:45:45.894Z,18.90
2019-03-21T03:48:15.904Z,17.13
2019-03-21T03:50:45.830Z,22.33
2019-03-21T03:53:15.805Z,14.73
2019-03-21T03:55:46.022Z,17.20
2019-03-21T03:58:22.055Z,19.00
2019-03-21T04:00:52.134Z,21.57
2019-03-21T04:03:22.242Z,18.93
2019-03-21T04:05:52.201Z,18.33
2019-03-21T04:08:22.227Z,17.93
2019-03-21T04:10:55.332Z,18.00
2019-03-21T04:13:25.469Z,16.50
2019-03-21T04:15:55.426Z,19.53
2019-03-21T04:18:25.863Z,16.90
2019-03-21T04:21:01.816Z,22.87
2019-03-21T04:23:31.784Z,15.37
2019-03-21T04:26:05.035Z,17.80
2019-03-21T04:28:35.419Z,19.47
2019-03-21T04:31:05.367Z,16.90
2019-03-21T04:33:35.333Z,19.60
2019-03-21T04:36:05.275Z,19.77
2019-03-21T04:38:35.246Z,19.80
2019-03-21T04:41:05.196Z,20.73
2019-03-21T04:43:35.163Z,19.33
2019-03-21T04:46:05.116Z,20.00
2019-03-21T04:48:35.072Z,19.97
2019-03-21T04:51:05.019Z,18.57
2019-03-21T04:53:34.995Z,21.17
2019-03-21T04:56:04.935Z,16.53
2019-03-21T04:58:34.974Z,20.00
2019-03-21T05:01:05.992Z,19.27
2019-03-21T05:03:35.956Z,20.27
2019-03-21T05:06:05.970Z,19.57
2019-03-21T05:08:35.935Z,24.87
2019-03-21T05:11:05.880Z,19.80
2019-03-21T05:13:35.847Z,22.57
2019-03-21T05:16:14.290Z,23.47
2019-03-21T05:18:52.310Z,21.07
2019-03-21T05:21:24.372Z,17.37
2019-03-21T05:23:54.351Z,21.43
2019-03-21T05:26:24.299Z,20.60
2019-03-21T05:28:54.283Z,23.70
2019-03-21T05:31:27.647Z,24.43
2019-03-21T05:33:57.618Z,21.67
2019-03-21T05:36:27.566Z,26.90
2019-03-21T05:38:57.535Z,25.83
2019-03-21T05:41:28.551Z,21.50
2019-03-21T05:44:04.250Z,19.23
2019-03-21T05:46:34.199Z,20.43
2019-03-21T05:49:04.166Z,19.70
2019-03-21T05:51:34.111Z,19.07
2019-03-21T05:54:04.151Z,18.93
2019-03-21T05:56:34.090Z,21.63
2019-03-21T05:59:04.064Z,23.37
2019-03-21T06:01:34.067Z,21.17
2019-03-21T06:04:05.197Z,19.97
2019-03-21T06:06:52.803Z,16.63
2019-03-21T06:09:23.139Z,22.30
2019-03-21T06:11:59.058Z,21.27
2019-03-21T06:14:31.530Z,17.87
2019-03-21T06:17:01.480Z,19.63
2019-03-21T06:19:37.299Z,21.10
2019-03-21T06:22:19.195Z,18.00
2019-03-21T06:25:15.748Z,19.93
2019-03-21T06:27:44.730Z,23.37
2019-03-21T06:30:14.771Z,21.33
2019-03-21T06:32:44.723Z,19.40
2019-03-21T06:35:19.808Z,18.57
2019-03-21T06:37:49.754Z,21.73
2019-03-21T06:40:19.734Z,20.77
2019-03-21T06:42:49.751Z,21.60
2019-03-21T06:45:20.290Z,20.93
2019-03-21T06:47:52.905Z,26.40
2019-03-21T06:50:22.105Z,17.60
2019-03-21T06:52:52.049Z,21.13
2019-03-21T06:55:22.015Z,20.00
2019-03-21T06:57:51.963Z,17.40
2019-03-21T07:00:25.037Z,19.00
2019-03-21T07:02:54.719Z,25.27
2019-03-21T07:05:26.648Z,20.40
2019-03-21T07:07:56.330Z,19.80
2019-03-21T07:10:26.311Z,24.43
2019-03-21T07:12:56.259Z,24.10
2019-03-21T07:15:26.236Z,20.27
2019-03-21T07:17:56.182Z,20.50
2019-03-21T07:20:26.411Z,20.20
2019-03-21T07:22:56.364Z,22.83
2019-03-21T07:25:26.343Z,18.23
2019-03-21T07:27:56.354Z,18.57
2019-03-21T07:30:26.399Z,20.70
2019-03-21T07:32:57.002Z,19.00
2019-03-21T07:35:27.045Z,18.47
2019-03-21T07:37:57.172Z,22.70
2019-03-21T07:40:27.161Z,22.03
2019-03-21T07:42:57.122Z,20.33
2019-03-21T07:45:27.379Z,20.87
2019-03-21T07:47:57.899Z,25.27
2019-03-21T07:50:27.874Z,27.43
2019-03-21T07:52:58.223Z,27.67
2019-03-21T07:55:28.200Z,26.40
2019-03-21T07:57:59.537Z,24.03
2019-03-21T08:00:30.151Z,29.03
2019-03-21T08:03:00.026Z,27.37
2019-03-21T08:05:39.794Z,21.83
2019-03-21T08:08:02.350Z,26.83
2019-03-21T08:10:33.703Z,27.30
2019-03-21T08:13:03.769Z,28.80
2019-03-21T08:15:33.747Z,29.47
2019-03-21T08:18:03.698Z,28.80
2019-03-21T08:20:33.675Z,28.73
2019-03-21T08:23:03.618Z,28.63
2019-03-21T08:25:33.595Z,27.80
2019-03-21T08:28:03.721Z,35.57
2019-03-21T08:30:37.577Z,28.00
2019-03-21T08:33:07.518Z,31.37
2019-03-21T08:35:37.628Z,33.50
2019-03-21T08:38:07.643Z,28.40
2019-03-21T08:40:37.623Z,27.50
2019-03-21T08:43:07.583Z,37.13
2019-03-21T08:45:37.563Z,33.13
2019-03-21T08:48:07.521Z,27.60
2019-03-21T08:50:37.499Z,36.70
2019-03-21T08:53:07.454Z,34.10
2019-03-21T08:55:37.919Z,31.30
2019-03-21T08:58:07.939Z,36.33
2019-03-21T09:00:37.923Z,33.47
2019-03-21T09:03:07.891Z,33.30
2019-03-21T09:05:37.875Z,33.70
2019-03-21T09:08:07.834Z,35.30
2019-03-21T09:10:37.820Z,39.93
2019-03-21T09:13:07.791Z,34.17
2019-03-21T09:15:38.043Z,38.07
2019-03-21T09:18:08.003Z,35.00
2019-03-21T09:20:37.997Z,32.93
2019-03-21T09:23:07.951Z,43.17
2019-03-21T09:25:37.959Z,40.90
2019-03-21T09:28:07.915Z,40.20
2019-03-21T09:30:37.903Z,39.67
2019-03-21T09:33:07.862Z,34.73
2019-03-21T09:35:37.843Z,40.97
2019-03-21T09:38:07.830Z,39.53
2019-03-21T09:40:37.863Z,47.20
2019-03-21T09:43:07.879Z,37.40
2019-03-21T09:45:37.859Z,37.30
2019-03-21T09:48:07.911Z,38.80
2019-03-21T09:50:37.937Z,34.80
2019-03-21T09:53:07.915Z,39.83
2019-03-21T09:55:37.873Z,37.30
2019-03-21T09:58:07.929Z,36.00
2019-03-21T10:00:38.018Z,32.80
2019-03-21T10:03:07.955Z,41.17
2019-03-21T10:05:37.907Z,32.57
2019-03-21T10:08:07.955Z,30.83
2019-03-21T10:10:37.913Z,35.20
2019-03-21T10:13:07.889Z,34.17
2019-03-21T10:15:37.848Z,32.30
2019-03-21T10:18:07.830Z,32.20
2019-03-21T10:20:37.787Z,34.87
2019-03-21T10:23:07.782Z,35.57
2019-03-21T10:25:37.734Z,33.23
2019-03-21T10:28:07.719Z,32.07
2019-03-21T10:30:41.890Z,32.30
2019-03-21T10:33:13.133Z,29.23
2019-03-21T10:35:43.092Z,37.60
2019-03-21T10:38:14.397Z,37.83
2019-03-21T10:40:44.530Z,37.53
2019-03-21T10:43:14.520Z,34.47
2019-03-21T10:45:44.479Z,34.80
2019-03-21T10:48:14.467Z,37.83
2019-03-21T10:50:44.498Z,31.60
2019-03-21T10:53:14.479Z,31.70
2019-03-21T10:55:44.436Z,35.47
2019-03-21T10:58:14.423Z,33.67
2019-03-21T11:00:44.376Z,34.20
2019-03-21T11:03:14.359Z,33.00
2019-03-21T11:05:44.322Z,32.63
2019-03-21T11:08:14.319Z,35.17
2019-03-21T11:10:46.112Z,33.33
2019-03-21T11:13:15.897Z,36.27
2019-03-21T11:15:45.860Z,34.47
2019-03-21T11:18:15.839Z,30.93
2019-03-21T11:20:45.807Z,28.77
2019-03-21T11:23:15.869Z,29.33
2019-03-21T11:25:45.821Z,30.33
2019-03-21T11:28:17.785Z,24.00
2019-03-21T11:30:47.633Z,23.50
2019-03-21T11:33:17.616Z,22.43
2019-03-21T11:35:47.570Z,26.57
2019-03-21T11:38:17.554Z,20.43
2019-03-21T11:40:48.614Z,22.90
2019-03-21T11:43:18.698Z,18.97
2019-03-21T11:45:48.810Z,24.53
2019-03-21T11:48:18.744Z,25.70
2019-03-21T11:50:48.728Z,21.97
2019-03-21T11:53:18.684Z,24.33
2019-03-21T11:55:48.668Z,28.63
2019-03-21T11:58:19.696Z,30.37
2019-03-21T12:00:49.676Z,26.73
2019-03-21T12:03:19.639Z,27.63
2019-03-21T12:05:49.619Z,21.97
2019-03-21T12:08:19.579Z,21.67
2019-03-21T12:10:49.559Z,25.70
2019-03-21T12:13:19.509Z,22.70
2019-03-21T12:15:49.499Z,31.63
2019-03-21T12:18:19.466Z,29.57
2019-03-21T12:20:50.363Z,26.40
2019-03-21T12:23:20.318Z,25.37
2019-03-21T12:25:50.304Z,25.13
2019-03-21T12:28:20.295Z,29.70
2019-03-21T12:30:50.285Z,26.37
2019-03-21T12:33:20.240Z,28.00
2019-03-21T12:35:50.645Z,30.93
2019-03-21T12:38:20.583Z,25.70
2019-03-21T12:40:50.571Z,28.20
2019-03-21T12:43:20.518Z,27.37
2019-03-21T12:45:50.504Z,29.73
2019-03-21T12:48:20.541Z,26.80
2019-03-21T12:50:50.583Z,28.50
2019-03-21T12:53:20.571Z,31.10
2019-03-21T12:55:50.558Z,27.97
2019-03-21T12:58:20.607Z,28.43
2019-03-21T13:00:50.659Z,26.30
2019-03-21T13:03:20.650Z,25.07
2019-03-21T13:05:50.643Z,25.20
2019-03-21T13:08:20.599Z,28.60
2019-03-21T13:10:50.647Z,26.70
2019-03-21T13:13:20.599Z,26.17
2019-03-21T13:15:50.566Z,27.50
2019-03-21T13:18:20.562Z,29.17
2019-03-21T13:20:50.525Z,21.13
2019-03-21T13:23:20.514Z,24.23
2019-03-21T13:25:50.467Z,27.43
2019-03-21T13:28:20.448Z,23.63
2019-03-21T13:30:50.410Z,24.17
2019-03-21T13:33:20.395Z,25.97
2019-03-21T13:35:50.364Z,24.27
2019-03-21T13:38:20.506Z,24.47
2019-03-21T13:40:50.478Z,25.80
2019-03-21T13:43:20.454Z,27.17
2019-03-21T13:45:50.539Z,24.43
2019-03-21T13:48:20.590Z,26.90
2019-03-21T13:50:50.551Z,23.00
2019-03-21T13:53:20.632Z,20.90
2019-03-21T13:55:50.592Z,23.93
2019-03-21T13:58:20.730Z,22.10
2019-03-21T14:00:50.746Z,26.63
2019-03-21T14:03:25.269Z,25.40
2019-03-21T14:05:52.376Z,20.87
2019-03-21T14:08:22.359Z,20.67
2019-03-21T14:10:52.319Z,26.77
2019-03-21T14:13:22.302Z,23.67
2019-03-21T14:15:52.263Z,20.30
2019-03-21T14:18:22.247Z,25.50
2019-03-21T14:20:52.199Z,22.87
2019-03-21T14:23:22.178Z,22.63
2019-03-21T14:25:52.135Z,24.30
2019-03-21T14:28:22.115Z,22.63
2019-03-21T14:30:52.074Z,19.80
2019-03-21T14:33:22.060Z,19.57
2019-03-21T14:35:52.126Z,23.50
2019-03-21T14:38:26.265Z,20.23
2019-03-21T14:40:53.899Z,24.97
2019-03-21T14:43:23.888Z,24.53
2019-03-21T14:45:53.843Z,23.90
2019-03-21T14:48:23.827Z,26.23
2019-03-21T14:50:53.790Z,24.40
2019-03-21T14:53:28.860Z,24.63
2019-03-21T14:55:55.356Z,22.93
2019-03-21T14:58:25.341Z,25.33
2019-03-21T15:00:55.299Z,21.43
2019-03-21T15:03:25.283Z,27.50
2019-03-21T15:05:55.314Z,19.50
2019-03-21T15:08:25.360Z,21.27
2019-03-21T15:10:55.337Z,23.20
2019-03-21T15:13:25.389Z,26.70
2019-03-21T15:15:55.486Z,20.23
2019-03-21T15:18:25.531Z,24.67
2019-03-21T15:20:55.483Z,20.17
2019-03-21T15:23:26.047Z,25.90
2019-03-21T15:25:56.271Z,21.40
2019-03-21T15:28:26.412Z,25.40
2019-03-21T15:30:56.372Z,21.67
2019-03-21T15:33:26.355Z,24.30
2019-03-21T15:35:56.308Z,20.70
2019-03-21T15:38:27.744Z,21.50
2019-03-21T15:40:57.859Z,23.87
2019-03-21T15:43:27.847Z,23.03
2019-03-21T15:45:57.871Z,20.93
2019-03-21T15:48:29.014Z,25.70
2019-03-21T15:51:04.383Z,19.67
2019-03-21T15:53:30.579Z,29.47
2019-03-21T15:56:00.535Z,25.83
2019-03-21T15:58:30.520Z,24.10
2019-03-21T16:01:00.483Z,24.07
2019-03-21T16:03:30.826Z,19.87
2019-03-21T16:06:00.794Z,22.10
2019-03-21T16:08:30.981Z,26.47
2019-03-21T16:11:00.894Z,21.67
2019-03-21T16:13:30.871Z,20.70
2019-03-21T16:16:00.827Z,22.07
2019-03-21T16:18:30.815Z,21.37
2019-03-21T16:21:00.779Z,23.07
2019-03-21T16:23:30.759Z,23.43
2019-03-21T16:26:00.743Z,22.73
2019-03-21T16:28:30.703Z,27.87
2019-03-21T16:31:00.698Z,24.37
2019-03-21T16:33:30.753Z,27.70
2019-03-21T16:36:00.723Z,22.93
2019-03-21T16:38:30.675Z,22.67
2019-03-21T16:41:00.655Z,25.10
2019-03-21T16:43:30.610Z,26.17
2019-03-21T16:46:00.659Z,23.33
2019-03-21T16:48:31.683Z,26.07
2019-03-21T16:51:03.026Z,27.13
2019-03-21T16:53:33.223Z,23.73
2019-03-21T16:56:03.206Z,34.63
2019-03-21T16:58:34.221Z,37.83
2019-03-21T17:01:04.266Z,67.93
2019-03-21T17:03:34.230Z,62.17
2019-03-21T17:06:04.275Z,54.93
2019-03-21T17:08:34.236Z,52.53
2019-03-21T17:11:04.307Z,46.73
2019-03-21T17:13:34.251Z,51.67
2019-03-21T17:16:05.706Z,65.93
2019-03-21T17:18:35.903Z,57.07
2019-03-21T17:21:06.011Z,53.43
2019-03-21T17:23:35.983Z,58.03
2019-03-21T17:26:05.970Z,59.80
2019-03-21T17:28:35.914Z,66.47
2019-03-21T17:31:06.031Z,61.50
2019-03-21T17:33:35.983Z,63.60
2019-03-21T17:36:05.971Z,65.63
2019-03-21T17:38:35.927Z,57.23
2019-03-21T17:41:05.975Z,64.93
2019-03-21T17:43:35.922Z,64.57
2019-03-21T17:46:06.867Z,60.03
2019-03-21T17:48:36.836Z,61.17
2019-03-21T17:51:06.821Z,56.27
2019-03-21T17:53:36.775Z,54.67
2019-03-21T17:56:07.718Z,53.43
2019-03-21T17:58:37.679Z,45.43
2019-03-21T18:01:07.735Z,43.27
2019-03-21T18:03:37.690Z,45.30
2019-03-21T18:06:07.667Z,38.63
2019-03-21T18:08:37.627Z,33.80
2019-03-21T18:11:07.618Z,26.87
2019-03-21T18:13:37.566Z,27.97
2019-03-21T18:16:07.564Z,27.90
2019-03-21T18:18:38.584Z,24.90
2019-03-21T18:21:08.567Z,24.13
2019-03-21T18:23:39.598Z,27.83
2019-03-21T18:26:09.579Z,29.27
2019-03-21T18:28:39.598Z,20.60
2019-03-21T18:31:09.651Z,26.47
2019-03-21T18:33:39.687Z,29.53
2019-03-21T18:36:10.664Z,27.53
2019-03-21T18:38:41.261Z,29.60
2019-03-21T18:41:11.238Z,24.20
2019-03-21T18:43:41.212Z,35.10
2019-03-21T18:46:11.238Z,26.13
2019-03-21T18:48:41.335Z,26.50
2019-03-21T18:51:11.309Z,30.50
2019-03-21T18:53:41.407Z,23.93
2019-03-21T18:56:11.362Z,25.87
2019-03-21T18:58:41.374Z,23.00
2019-03-21T19:01:11.295Z,26.63
2019-03-21T19:03:41.336Z,24.40
2019-03-21T19:06:11.284Z,21.67
2019-03-21T19:08:41.254Z,25.77
2019-03-21T19:11:12.251Z,28.90
2019-03-21T19:13:42.231Z,24.43
2019-03-21T19:16:12.174Z,27.33
2019-03-21T19:18:42.154Z,31.27
2019-03-21T19:21:12.104Z,24.90
2019-03-21T19:23:42.079Z,24.43
2019-03-21T19:26:12.034Z,24.83
2019-03-21T19:28:42.079Z,23.37
2019-03-21T19:31:13.099Z,22.73
2019-03-21T19:33:43.065Z,27.87
2019-03-21T19:36:13.015Z,30.30
2019-03-21T19:38:42.986Z,23.43
2019-03-21T19:41:12.943Z,22.83
2019-03-21T19:43:42.984Z,25.13
2019-03-21T19:46:12.930Z,22.57
2019-03-21T19:48:50.086Z,24.20
2019-03-21T19:51:14.479Z,27.03
2019-03-21T19:53:44.455Z,26.43
2019-03-21T19:56:14.398Z,26.47
2019-03-21T19:58:44.369Z,27.93
2019-03-21T20:01:14.315Z,26.03
2019-03-21T20:03:44.287Z,29.47
2019-03-21T20:06:14.237Z,22.73
2019-03-21T20:08:44.211Z,29.27
2019-03-21T20:11:14.231Z,31.43
2019-03-21T20:13:45.464Z,29.97
2019-03-21T20:16:15.423Z,31.67
2019-03-21T20:18:45.559Z,31.33
2019-03-21T20:21:15.587Z,27.00
2019-03-21T20:23:45.627Z,26.63
2019-03-21T20:26:15.647Z,28.23
2019-03-21T20:28:45.631Z,26.50
2019-03-21T20:31:15.583Z,26.23
2019-03-21T20:33:45.554Z,27.50
2019-03-21T20:36:15.505Z,30.07
2019-03-21T20:38:45.543Z,28.57
2019-03-21T20:41:15.515Z,25.33
2019-03-21T20:43:45.482Z,25.23
2019-03-21T20:46:15.431Z,24.17
2019-03-21T20:48:44.324Z,23.93
2019-03-21T20:51:15.257Z,23.10
2019-03-21T20:53:45.223Z,23.87
2019-03-21T20:56:16.147Z,23.67
2019-03-21T20:58:46.182Z,20.97
2019-03-21T21:01:16.145Z,22.33
2019-03-21T21:03:46.211Z,33.97
2019-03-21T21:06:16.163Z,35.30
2019-03-21T21:08:46.151Z,31.30
2019-03-21T21:11:16.111Z,32.23
2019-03-21T21:13:46.082Z,30.53
2019-03-21T21:16:16.038Z,27.37
2019-03-21T21:18:46.019Z,33.00
2019-03-21T21:21:15.976Z,29.00
2019-03-21T21:23:46.056Z,31.20
2019-03-21T21:26:16.074Z,29.63
2019-03-21T21:28:46.023Z,27.70
2019-03-21T21:31:15.999Z,40.20
2019-03-21T21:33:45.959Z,31.80
2019-03-21T21:36:21.852Z,37.73
2019-03-21T21:38:47.510Z,34.87
2019-03-21T21:41:17.483Z,41.00
2019-03-21T21:43:47.430Z,32.97
2019-03-21T21:46:17.403Z,34.40
2019-03-21T21:48:47.351Z,33.63
2019-03-21T21:51:17.324Z,29.67
2019-03-21T21:53:48.283Z,35.10
2019-03-21T21:56:18.250Z,38.63
2019-03-21T21:58:48.203Z,36.77
2019-03-21T22:01:18.170Z,32.00
2019-03-21T22:03:48.114Z,29.67
2019-03-21T22:06:18.095Z,33.90
2019-03-21T22:08:48.046Z,30.63
2019-03-21T22:11:18.024Z,34.10
2019-03-21T22:13:47.975Z,28.23
2019-03-21T22:16:17.942Z,29.90
2019-03-21T22:18:47.902Z,26.17
2019-03-21T22:21:17.871Z,25.77
2019-03-21T22:23:48.907Z,27.83
2019-03-21T22:26:29.093Z,28.70
2019-03-21T22:28:50.460Z,26.87
2019-03-21T22:31:20.434Z,26.07
2019-03-21T22:33:50.387Z,23.33
2019-03-21T22:36:20.363Z,25.17
2019-03-21T22:38:50.318Z,23.73
2019-03-21T22:41:20.297Z,24.53
2019-03-21T22:43:50.247Z,26.10
2019-03-21T22:46:20.225Z,27.50
2019-03-21T22:48:50.175Z,26.10
2019-03-21T22:51:20.143Z,28.10
2019-03-21T22:53:50.095Z,26.67
2019-03-21T22:56:20.072Z,26.93
2019-03-21T22:58:50.026Z,31.37
2019-03-21T23:01:20.937Z,27.23
2019-03-21T23:03:50.885Z,29.93
2019-03-21T23:06:20.855Z,29.33
2019-03-21T23:08:50.802Z,37.10
2019-03-21T23:11:20.803Z,31.97
2019-03-21T23:13:52.355Z,30.53
2019-03-21T23:16:22.328Z,31.90
2019-03-21T23:18:52.274Z,31.47
2019-03-21T23:21:22.246Z,29.40
2019-03-21T23:23:52.237Z,33.97
2019-03-21T23:26:22.223Z,31.67
2019-03-21T23:28:52.274Z,35.13
2019-03-21T23:31:22.264Z,32.83
2019-03-21T23:33:52.418Z,31.03
2019-03-21T23:36:23.333Z,31.03
2019-03-21T23:38:53.305Z,36.70
2019-03-21T23:41:23.255Z,31.33
2019-03-21T23:43:53.233Z,28.27
2019-03-21T23:46:23.185Z,30.93
2019-03-21T23:48:53.156Z,29.27
2019-03-21T23:51:23.670Z,32.77
2019-03-21T23:53:53.656Z,29.67
2019-03-21T23:56:23.602Z,29.83
2019-03-21T23:58:53.575Z,31.47
